< < Back
Terminal Aerodrome Forecast


Current Version              Previous Versions:   1  2  3  4  5  6  7  8  9  

Terminal Aerodrome Forecast

501
FTUS42 KJAX 251732
TAFSSI
TAF
KSSI 251732Z 2518/2618 07011KT P6SM VCSH SCT020 BKN030 BKN040
     FM252100 07009KT P6SM SCT030 BKN050 BKN250
     FM260300 06005KT P6SM VCSH SCT025 BKN100
     FM261500 06010KT P6SM VCSH SCT025 BKN040=

Latest METAR

052
SAUS70 KWBC 260300 RRH
MTRSSI
METAR KSSI 260253Z AUTO 07010KT 10SM CLR 27/23 A3003 RMK AO2 SLP171
T02720228 50006


USA.gov is the U.S. government's official web portal to all federal, state and local government web resources and services.